sensor_id;sensor_type;location;lat;lon;timestamp;P1;durP1;ratioP1;P2;durP2;ratioP2
16296;SDS011;8256;56.144;13.394;2023-04-01T00:00:55;0.00;;;0.00;;
16296;SDS011;8256;56.144;13.394;2023-04-01T00:03:41;0.00;;;0.00;;
16296;SDS011;8256;56.144;13.394;2023-04-01T00:06:27;0.00;;;0.00;;
16296;SDS011;8256;56.144;13.394;2023-04-01T00:09:13;0.00;;;0.00;;
16296;SDS011;8256;56.144;13.394;2023-04-01T00:11:58;0.00;;;0.00;;
16296;SDS011;8256;56.144;13.394;2023-04-01T00:14:44;0.00;;;0.00;;
16296;SDS011;8256;56.144;13.394;2023-04-01T00:17:30;0.00;;;0.00;;
16296;SDS011;8256;56.144;13.394;2023-04-01T00:20:15;0.05;;;0.00;;
16296;SDS011;8256;56.144;13.394;2023-04-01T00:23:02;0.00;;;0.00;;
16296;SDS011;8256;56.144;13.394;2023-04-01T00:25:47;0.00;;;0.00;;
16296;SDS011;8256;56.144;13.394;2023-04-01T00:28:33;0.00;;;0.00;;
16296;SDS011;8256;56.144;13.394;2023-04-01T00:31:19;0.00;;;0.00;;
16296;SDS011;8256;56.144;13.394;2023-04-01T00:34:04;0.20;;;0.05;;
16296;SDS011;8256;56.144;13.394;2023-04-01T00:36:50;0.00;;;0.00;;
16296;SDS011;8256;56.144;13.394;2023-04-01T00:39:37;0.00;;;0.00;;
16296;SDS011;8256;56.144;13.394;2023-04-01T00:42:23;0.17;;;0.00;;
16296;SDS011;8256;56.144;13.394;2023-04-01T00:48:21;0.30;;;0.10;;
16296;SDS011;8256;56.144;13.394;2023-04-01T00:51:09;0.10;;;0.00;;
16296;SDS011;8256;56.144;13.394;2023-04-01T00:53:56;0.00;;;0.00;;
16296;SDS011;8256;56.144;13.394;2023-04-01T00:56:46;0.00;;;0.00;;
16296;SDS011;8256;56.144;13.394;2023-04-01T00:59:42;0.00;;;0.00;;
16296;SDS011;8256;56.144;13.394;2023-04-01T01:02:28;0.00;;;0.00;;
16296;SDS011;8256;56.144;13.394;2023-04-01T01:05:14;0.00;;;0.00;;
16296;SDS011;8256;56.144;13.394;2023-04-01T01:08:08;0.00;;;0.00;;
16296;SDS011;8256;56.144;13.394;2023-04-01T01:10:57;0.00;;;0.00;;
16296;SDS011;8256;56.144;13.394;2023-04-01T01:13:48;0.00;;;0.00;;
16296;SDS011;8256;56.144;13.394;2023-04-01T01:16:40;0.45;;;0.17;;
16296;SDS011;8256;56.144;13.394;2023-04-01T01:19:48;0.00;;;0.00;;
16296;SDS011;8256;56.144;13.394;2023-04-01T01:34:45;0.00;;;0.00;;
16296;SDS011;8256;56.144;13.394;2023-04-01T01:37:34;0.30;;;0.00;;
16296;SDS011;8256;56.144;13.394;2023-04-01T01:40:20;0.00;;;0.00;;
16296;SDS011;8256;56.144;13.394;2023-04-01T01:43:08;0.03;;;0.00;;
16296;SDS011;8256;56.144;13.394;2023-04-01T01:45:57;0.00;;;0.00;;
16296;SDS011;8256;56.144;13.394;2023-04-01T01:48:43;0.00;;;0.00;;
16296;SDS011;8256;56.144;13.394;2023-04-01T01:51:30;0.00;;;0.00;;
16296;SDS011;8256;56.144;13.394;2023-04-01T01:54:16;0.10;;;0.00;;
16296;SDS011;8256;56.144;13.394;2023-04-01T01:57:06;0.00;;;0.00;;
16296;SDS011;8256;56.144;13.394;2023-04-01T01:59:54;0.00;;;0.00;;
16296;SDS011;8256;56.144;13.394;2023-04-01T02:02:42;0.10;;;0.00;;
16296;SDS011;8256;56.144;13.394;2023-04-01T02:05:29;0.20;;;0.00;;
16296;SDS011;8256;56.144;13.394;2023-04-01T02:08:16;0.00;;;0.00;;
16296;SDS011;8256;56.144;13.394;2023-04-01T02:11:05;0.00;;;0.00;;
16296;SDS011;8256;56.144;13.394;2023-04-01T02:13:54;0.30;;;0.17;;
16296;SDS011;8256;56.144;13.394;2023-04-01T02:16:58;0.10;;;0.00;;
16296;SDS011;8256;56.144;13.394;2023-04-01T02:22:31;0.20;;;0.00;;
16296;SDS011;8256;56.144;13.394;2023-04-01T02:25:20;0.00;;;0.00;;
16296;SDS011;8256;56.144;13.394;2023-04-01T02:28:07;0.10;;;0.05;;
16296;SDS011;8256;56.144;13.394;2023-04-01T02:30:54;0.10;;;0.00;;
16296;SDS011;8256;56.144;13.394;2023-04-01T02:33:40;0.10;;;0.00;;
16296;SDS011;8256;56.144;13.394;2023-04-01T02:36:34;1.27;;;0.30;;
16296;SDS011;8256;56.144;13.394;2023-04-01T02:39:20;0.00;;;0.00;;
16296;SDS011;8256;56.144;13.394;2023-04-01T02:42:06;0.32;;;0.13;;
16296;SDS011;8256;56.144;13.394;2023-04-01T02:44:51;0.17;;;0.05;;
16296;SDS011;8256;56.144;13.394;2023-04-01T02:47:37;0.00;;;0.00;;
16296;SDS011;8256;56.144;13.394;2023-04-01T02:50:22;0.00;;;0.00;;
16296;SDS011;8256;56.144;13.394;2023-04-01T02:53:08;0.05;;;0.00;;
16296;SDS011;8256;56.144;13.394;2023-04-01T02:55:53;0.25;;;0.05;;
16296;SDS011;8256;56.144;13.394;2023-04-01T02:58:39;0.30;;;0.05;;
16296;SDS011;8256;56.144;13.394;2023-04-01T03:01:24;0.10;;;0.00;;
16296;SDS011;8256;56.144;13.394;2023-04-01T03:04:10;0.00;;;0.00;;
16296;SDS011;8256;56.144;13.394;2023-04-01T03:06:55;0.28;;;0.10;;
16296;SDS011;8256;56.144;13.394;2023-04-01T03:09:41;0.00;;;0.00;;
16296;SDS011;8256;56.144;13.394;2023-04-01T03:12:27;0.00;;;0.00;;
16296;SDS011;8256;56.144;13.394;2023-04-01T03:15:13;0.00;;;0.00;;
16296;SDS011;8256;56.144;13.394;2023-04-01T03:17:59;0.00;;;0.00;;
16296;SDS011;8256;56.144;13.394;2023-04-01T03:20:54;0.80;;;0.10;;
16296;SDS011;8256;56.144;13.394;2023-04-01T03:23:39;0.75;;;0.57;;
16296;SDS011;8256;56.144;13.394;2023-04-01T03:26:25;0.00;;;0.00;;
16296;SDS011;8256;56.144;13.394;2023-04-01T03:29:12;0.13;;;0.00;;
16296;SDS011;8256;56.144;13.394;2023-04-01T03:31:57;0.10;;;0.00;;
16296;SDS011;8256;56.144;13.394;2023-04-01T03:34:44;0.00;;;0.00;;
16296;SDS011;8256;56.144;13.394;2023-04-01T03:37:29;0.00;;;0.00;;
16296;SDS011;8256;56.144;13.394;2023-04-01T03:40:15;0.10;;;0.00;;
16296;SDS011;8256;56.144;13.394;2023-04-01T03:43:00;0.00;;;0.00;;
16296;SDS011;8256;56.144;13.394;2023-04-01T03:45:47;0.00;;;0.00;;
16296;SDS011;8256;56.144;13.394;2023-04-01T03:48:32;0.00;;;0.00;;
16296;SDS011;8256;56.144;13.394;2023-04-01T03:51:18;0.00;;;0.00;;
16296;SDS011;8256;56.144;13.394;2023-04-01T03:54:03;0.00;;;0.00;;
16296;SDS011;8256;56.144;13.394;2023-04-01T03:56:49;0.10;;;0.00;;
16296;SDS011;8256;56.144;13.394;2023-04-01T03:59:35;0.00;;;0.00;;
16296;SDS011;8256;56.144;13.394;2023-04-01T04:02:20;0.00;;;0.00;;
16296;SDS011;8256;56.144;13.394;2023-04-01T04:05:06;0.00;;;0.00;;
16296;SDS011;8256;56.144;13.394;2023-04-01T04:07:52;0.30;;;0.17;;
16296;SDS011;8256;56.144;13.394;2023-04-01T04:10:37;0.03;;;0.00;;
16296;SDS011;8256;56.144;13.394;2023-04-01T04:13:36;0.10;;;0.00;;
16296;SDS011;8256;56.144;13.394;2023-04-01T04:16:22;0.00;;;0.00;;
16296;SDS011;8256;56.144;13.394;2023-04-01T04:19:07;0.00;;;0.00;;
16296;SDS011;8256;56.144;13.394;2023-04-01T04:21:53;0.10;;;0.00;;
16296;SDS011;8256;56.144;13.394;2023-04-01T04:24:39;0.03;;;0.00;;
16296;SDS011;8256;56.144;13.394;2023-04-01T04:27:24;0.00;;;0.00;;
16296;SDS011;8256;56.144;13.394;2023-04-01T04:30:10;0.00;;;0.00;;
16296;SDS011;8256;56.144;13.394;2023-04-01T04:32:55;0.20;;;0.08;;
16296;SDS011;8256;56.144;13.394;2023-04-01T04:35:41;0.00;;;0.00;;
16296;SDS011;8256;56.144;13.394;2023-04-01T04:38:26;0.70;;;0.10;;
16296;SDS011;8256;56.144;13.394;2023-04-01T04:41:13;0.00;;;0.00;;
16296;SDS011;8256;56.144;13.394;2023-04-01T04:43:59;0.00;;;0.00;;
16296;SDS011;8256;56.144;13.394;2023-04-01T04:46:45;0.00;;;0.00;;
16296;SDS011;8256;56.144;13.394;2023-04-01T04:49:30;0.00;;;0.00;;
16296;SDS011;8256;56.144;13.394;2023-04-01T04:52:16;0.00;;;0.00;;
16296;SDS011;8256;56.144;13.394;2023-04-01T04:55:01;0.00;;;0.00;;
16296;SDS011;8256;56.144;13.394;2023-04-01T04:57:47;0.00;;;0.00;;
16296;SDS011;8256;56.144;13.394;2023-04-01T05:00:32;0.00;;;0.00;;
16296;SDS011;8256;56.144;13.394;2023-04-01T05:03:18;0.00;;;0.00;;
16296;SDS011;8256;56.144;13.394;2023-04-01T05:06:03;0.00;;;0.00;;
16296;SDS011;8256;56.144;13.394;2023-04-01T05:08:49;0.10;;;0.00;;
16296;SDS011;8256;56.144;13.394;2023-04-01T05:11:35;0.00;;;0.00;;
16296;SDS011;8256;56.144;13.394;2023-04-01T05:14:21;0.00;;;0.00;;
16296;SDS011;8256;56.144;13.394;2023-04-01T05:17:10;0.03;;;0.00;;
16296;SDS011;8256;56.144;13.394;2023-04-01T05:19:55;0.00;;;0.00;;
16296;SDS011;8256;56.144;13.394;2023-04-01T05:22:41;1.15;;;0.08;;
16296;SDS011;8256;56.144;13.394;2023-04-01T05:25:27;0.00;;;0.00;;
16296;SDS011;8256;56.144;13.394;2023-04-01T05:28:13;0.00;;;0.00;;
16296;SDS011;8256;56.144;13.394;2023-04-01T05:30:59;0.10;;;0.00;;
16296;SDS011;8256;56.144;13.394;2023-04-01T05:33:45;0.00;;;0.00;;
16296;SDS011;8256;56.144;13.394;2023-04-01T05:36:30;0.00;;;0.00;;
16296;SDS011;8256;56.144;13.394;2023-04-01T05:39:16;0.00;;;0.00;;
16296;SDS011;8256;56.144;13.394;2023-04-01T05:42:02;0.00;;;0.00;;
16296;SDS011;8256;56.144;13.394;2023-04-01T05:44:47;0.00;;;0.00;;
16296;SDS011;8256;56.144;13.394;2023-04-01T05:47:33;0.10;;;0.00;;
16296;SDS011;8256;56.144;13.394;2023-04-01T05:50:18;0.00;;;0.00;;
16296;SDS011;8256;56.144;13.394;2023-04-01T05:53:04;0.00;;;0.00;;
16296;SDS011;8256;56.144;13.394;2023-04-01T05:55:50;0.00;;;0.00;;
16296;SDS011;8256;56.144;13.394;2023-04-01T05:58:35;0.00;;;0.00;;
16296;SDS011;8256;56.144;13.394;2023-04-01T06:01:21;0.00;;;0.00;;
16296;SDS011;8256;56.144;13.394;2023-04-01T06:04:09;0.00;;;0.00;;
16296;SDS011;8256;56.144;13.394;2023-04-01T06:06:55;0.00;;;0.00;;
16296;SDS011;8256;56.144;13.394;2023-04-01T06:09:41;0.15;;;0.10;;
16296;SDS011;8256;56.144;13.394;2023-04-01T06:15:22;0.20;;;0.10;;
16296;SDS011;8256;56.144;13.394;2023-04-01T06:21:22;0.10;;;0.00;;
16296;SDS011;8256;56.144;13.394;2023-04-01T06:27:11;0.00;;;0.00;;
16296;SDS011;8256;56.144;13.394;2023-04-01T06:30:02;0.00;;;0.00;;
16296;SDS011;8256;56.144;13.394;2023-04-01T06:35:43;0.00;;;0.00;;
16296;SDS011;8256;56.144;13.394;2023-04-01T06:53:23;0.00;;;0.00;;
16296;SDS011;8256;56.144;13.394;2023-04-01T06:56:14;0.20;;;0.00;;
16296;SDS011;8256;56.144;13.394;2023-04-01T06:59:10;0.00;;;0.00;;
16296;SDS011;8256;56.144;13.394;2023-04-01T07:02:21;0.20;;;0.10;;
16296;SDS011;8256;56.144;13.394;2023-04-01T07:05:03;0.10;;;0.00;;
16296;SDS011;8256;56.144;13.394;2023-04-01T07:07:53;0.10;;;0.00;;
16296;SDS011;8256;56.144;13.394;2023-04-01T07:10:43;0.28;;;0.00;;
16296;SDS011;8256;56.144;13.394;2023-04-01T07:13:32;0.07;;;0.00;;
16296;SDS011;8256;56.144;13.394;2023-04-01T07:16:20;0.00;;;0.00;;
16296;SDS011;8256;56.144;13.394;2023-04-01T07:19:09;0.10;;;0.00;;
16296;SDS011;8256;56.144;13.394;2023-04-01T07:22:00;0.00;;;0.00;;
16296;SDS011;8256;56.144;13.394;2023-04-01T07:24:46;0.00;;;0.00;;
16296;SDS011;8256;56.144;13.394;2023-04-01T07:27:33;0.00;;;0.00;;
16296;SDS011;8256;56.144;13.394;2023-04-01T07:30:20;0.00;;;0.00;;
16296;SDS011;8256;56.144;13.394;2023-04-01T07:33:24;0.00;;;0.00;;
16296;SDS011;8256;56.144;13.394;2023-04-01T07:36:46;0.00;;;0.00;;
16296;SDS011;8256;56.144;13.394;2023-04-01T07:39:28;0.10;;;0.00;;
16296;SDS011;8256;56.144;13.394;2023-04-01T07:42:17;0.00;;;0.00;;
16296;SDS011;8256;56.144;13.394;2023-04-01T07:45:23;0.00;;;0.00;;
16296;SDS011;8256;56.144;13.394;2023-04-01T07:48:30;0.00;;;0.00;;
16296;SDS011;8256;56.144;13.394;2023-04-01T07:51:33;0.00;;;0.00;;
16296;SDS011;8256;56.144;13.394;2023-04-01T07:54:28;0.08;;;0.00;;
16296;SDS011;8256;56.144;13.394;2023-04-01T07:57:19;0.00;;;0.00;;
16296;SDS011;8256;56.144;13.394;2023-04-01T08:00:19;0.00;;;0.00;;
16296;SDS011;8256;56.144;13.394;2023-04-01T08:06:00;0.00;;;0.00;;
16296;SDS011;8256;56.144;13.394;2023-04-01T08:23:24;0.03;;;0.00;;
16296;SDS011;8256;56.144;13.394;2023-04-01T08:29:16;0.00;;;0.00;;
16296;SDS011;8256;56.144;13.394;2023-04-01T08:32:05;0.00;;;0.00;;
16296;SDS011;8256;56.144;13.394;2023-04-01T08:34:58;0.00;;;0.00;;
16296;SDS011;8256;56.144;13.394;2023-04-01T08:37:47;0.10;;;0.00;;
16296;SDS011;8256;56.144;13.394;2023-04-01T08:40:37;0.20;;;0.00;;
16296;SDS011;8256;56.144;13.394;2023-04-01T08:49:40;0.10;;;0.00;;
16296;SDS011;8256;56.144;13.394;2023-04-01T08:52:35;0.05;;;0.00;;
16296;SDS011;8256;56.144;13.394;2023-04-01T08:58:33;0.10;;;0.00;;
16296;SDS011;8256;56.144;13.394;2023-04-01T09:04:13;0.00;;;0.00;;
16296;SDS011;8256;56.144;13.394;2023-04-01T09:07:05;0.55;;;0.10;;
16296;SDS011;8256;56.144;13.394;2023-04-01T09:16:11;0.20;;;0.00;;
16296;SDS011;8256;56.144;13.394;2023-04-01T09:19:11;0.00;;;0.00;;
16296;SDS011;8256;56.144;13.394;2023-04-01T09:22:13;0.00;;;0.00;;
16296;SDS011;8256;56.144;13.394;2023-04-01T09:28:12;0.00;;;0.00;;
16296;SDS011;8256;56.144;13.394;2023-04-01T09:31:23;0.00;;;0.00;;
16296;SDS011;8256;56.144;13.394;2023-04-01T09:37:29;0.10;;;0.00;;
16296;SDS011;8256;56.144;13.394;2023-04-01T09:43:21;0.00;;;0.00;;
16296;SDS011;8256;56.144;13.394;2023-04-01T09:49:02;0.30;;;0.10;;
16296;SDS011;8256;56.144;13.394;2023-04-01T10:01:04;0.10;;;0.00;;
16296;SDS011;8256;56.144;13.394;2023-04-01T10:13:27;0.00;;;0.00;;
16296;SDS011;8256;56.144;13.394;2023-04-01T10:25:29;0.10;;;0.00;;
16296;SDS011;8256;56.144;13.394;2023-04-01T10:28:24;0.17;;;0.00;;
16296;SDS011;8256;56.144;13.394;2023-04-01T10:40:20;0.10;;;0.00;;
16296;SDS011;8256;56.144;13.394;2023-04-01T10:52:07;0.22;;;0.00;;
16296;SDS011;8256;56.144;13.394;2023-04-01T10:58:08;0.00;;;0.00;;
16296;SDS011;8256;56.144;13.394;2023-04-01T11:13:08;0.20;;;0.00;;
16296;SDS011;8256;56.144;13.394;2023-04-01T11:21:44;0.17;;;0.00;;
16296;SDS011;8256;56.144;13.394;2023-04-01T11:30:48;0.10;;;0.00;;
16296;SDS011;8256;56.144;13.394;2023-04-01T11:33:34;0.10;;;0.00;;
16296;SDS011;8256;56.144;13.394;2023-04-01T11:39:19;0.20;;;0.00;;
16296;SDS011;8256;56.144;13.394;2023-04-01T11:42:14;0.15;;;0.00;;
16296;SDS011;8256;56.144;13.394;2023-04-01T11:50:58;0.63;;;0.15;;
16296;SDS011;8256;56.144;13.394;2023-04-01T11:56:57;0.20;;;0.00;;
16296;SDS011;8256;56.144;13.394;2023-04-01T11:59:59;0.40;;;0.00;;
16296;SDS011;8256;56.144;13.394;2023-04-01T12:03:09;0.13;;;0.00;;
16296;SDS011;8256;56.144;13.394;2023-04-01T12:06:13;0.40;;;0.10;;
16296;SDS011;8256;56.144;13.394;2023-04-01T12:14:43;0.50;;;0.10;;
16296;SDS011;8256;56.144;13.394;2023-04-01T12:20:35;0.50;;;0.10;;
16296;SDS011;8256;56.144;13.394;2023-04-01T12:32:05;0.40;;;0.10;;
16296;SDS011;8256;56.144;13.394;2023-04-01T12:35:16;0.30;;;0.10;;
16296;SDS011;8256;56.144;13.394;2023-04-01T12:49:33;0.40;;;0.10;;
16296;SDS011;8256;56.144;13.394;2023-04-01T12:52:25;0.53;;;0.10;;
16296;SDS011;8256;56.144;13.394;2023-04-01T12:55:25;0.30;;;0.00;;
16296;SDS011;8256;56.144;13.394;2023-04-01T13:04:13;0.40;;;0.10;;
16296;SDS011;8256;56.144;13.394;2023-04-01T13:07:11;0.50;;;0.10;;
16296;SDS011;8256;56.144;13.394;2023-04-01T13:21:47;1.20;;;0.30;;
16296;SDS011;8256;56.144;13.394;2023-04-01T13:24:45;1.42;;;0.32;;
16296;SDS011;8256;56.144;13.394;2023-04-01T13:27:34;1.58;;;0.40;;
16296;SDS011;8256;56.144;13.394;2023-04-01T13:30:33;1.95;;;0.50;;
16296;SDS011;8256;56.144;13.394;2023-04-01T13:33:27;2.40;;;0.70;;
16296;SDS011;8256;56.144;13.394;2023-04-01T13:36:19;2.37;;;0.80;;
16296;SDS011;8256;56.144;13.394;2023-04-01T13:42:14;2.65;;;0.95;;
16296;SDS011;8256;56.144;13.394;2023-04-01T13:54:12;3.00;;;1.30;;
16296;SDS011;8256;56.144;13.394;2023-04-01T14:00:03;6.20;;;1.13;;
16296;SDS011;8256;56.144;13.394;2023-04-01T14:14:30;2.92;;;1.35;;
16296;SDS011;8256;56.144;13.394;2023-04-01T14:23:13;3.10;;;1.40;;
16296;SDS011;8256;56.144;13.394;2023-04-01T14:32:27;2.95;;;1.27;;
16296;SDS011;8256;56.144;13.394;2023-04-01T14:35:31;2.93;;;1.30;;
16296;SDS011;8256;56.144;13.394;2023-04-01T14:38:24;2.90;;;1.30;;
16296;SDS011;8256;56.144;13.394;2023-04-01T14:41:23;3.97;;;1.70;;
16296;SDS011;8256;56.144;13.394;2023-04-01T14:50:23;4.37;;;2.03;;
16296;SDS011;8256;56.144;13.394;2023-04-01T14:53:13;3.25;;;1.65;;
16296;SDS011;8256;56.144;13.394;2023-04-01T14:56:02;3.28;;;1.77;;
16296;SDS011;8256;56.144;13.394;2023-04-01T14:58:51;3.13;;;1.60;;
16296;SDS011;8256;56.144;13.394;2023-04-01T15:04:36;3.20;;;1.80;;
16296;SDS011;8256;56.144;13.394;2023-04-01T15:10:26;3.30;;;1.83;;
16296;SDS011;8256;56.144;13.394;2023-04-01T15:13:19;3.72;;;2.00;;
16296;SDS011;8256;56.144;13.394;2023-04-01T15:22:20;3.35;;;1.50;;
16296;SDS011;8256;56.144;13.394;2023-04-01T15:28:34;3.95;;;1.55;;
16296;SDS011;8256;56.144;13.394;2023-04-01T15:31:30;3.05;;;1.17;;
16296;SDS011;8256;56.144;13.394;2023-04-01T15:34:31;2.53;;;0.90;;
16296;SDS011;8256;56.144;13.394;2023-04-01T15:45:50;3.33;;;1.20;;
16296;SDS011;8256;56.144;13.394;2023-04-01T15:51:43;2.60;;;0.98;;
16296;SDS011;8256;56.144;13.394;2023-04-01T15:54:47;3.00;;;1.23;;
16296;SDS011;8256;56.144;13.394;2023-04-01T15:57:42;2.40;;;0.80;;
16296;SDS011;8256;56.144;13.394;2023-04-01T16:00:31;3.00;;;1.00;;
16296;SDS011;8256;56.144;13.394;2023-04-01T16:06:43;3.00;;;1.27;;
16296;SDS011;8256;56.144;13.394;2023-04-01T16:09:39;2.58;;;0.85;;
16296;SDS011;8256;56.144;13.394;2023-04-01T16:12:42;2.60;;;0.90;;
16296;SDS011;8256;56.144;13.394;2023-04-01T16:18:29;2.30;;;0.80;;
16296;SDS011;8256;56.144;13.394;2023-04-01T16:24:15;2.30;;;0.80;;
16296;SDS011;8256;56.144;13.394;2023-04-01T16:27:08;2.65;;;0.90;;
16296;SDS011;8256;56.144;13.394;2023-04-01T16:30:00;2.47;;;0.80;;
16296;SDS011;8256;56.144;13.394;2023-04-01T16:32:51;3.17;;;0.70;;
16296;SDS011;8256;56.144;13.394;2023-04-01T16:35:55;2.42;;;0.70;;
16296;SDS011;8256;56.144;13.394;2023-04-01T16:41:49;1.90;;;0.50;;
16296;SDS011;8256;56.144;13.394;2023-04-01T16:44:46;2.30;;;0.50;;
16296;SDS011;8256;56.144;13.394;2023-04-01T16:53:43;1.45;;;0.30;;
16296;SDS011;8256;56.144;13.394;2023-04-01T16:56:42;1.42;;;0.40;;
16296;SDS011;8256;56.144;13.394;2023-04-01T16:59:33;1.60;;;0.40;;
16296;SDS011;8256;56.144;13.394;2023-04-01T17:02:22;1.23;;;0.30;;
16296;SDS011;8256;56.144;13.394;2023-04-01T17:05:09;1.98;;;0.57;;
16296;SDS011;8256;56.144;13.394;2023-04-01T17:11:12;1.27;;;0.30;;
16296;SDS011;8256;56.144;13.394;2023-04-01T17:14:10;1.13;;;0.20;;
16296;SDS011;8256;56.144;13.394;2023-04-01T17:20:09;0.93;;;0.22;;
16296;SDS011;8256;56.144;13.394;2023-04-01T17:23:09;0.40;;;0.10;;
16296;SDS011;8256;56.144;13.394;2023-04-01T17:28:50;0.50;;;0.10;;
16296;SDS011;8256;56.144;13.394;2023-04-01T17:31:42;3.13;;;0.57;;
16296;SDS011;8256;56.144;13.394;2023-04-01T17:34:44;0.40;;;0.10;;
16296;SDS011;8256;56.144;13.394;2023-04-01T17:43:45;0.40;;;0.10;;
16296;SDS011;8256;56.144;13.394;2023-04-01T17:46:38;0.40;;;0.10;;
16296;SDS011;8256;56.144;13.394;2023-04-01T17:55:20;0.10;;;0.00;;
16296;SDS011;8256;56.144;13.394;2023-04-01T17:58:13;0.20;;;0.00;;
16296;SDS011;8256;56.144;13.394;2023-04-01T18:06:40;0.08;;;0.00;;
16296;SDS011;8256;56.144;13.394;2023-04-01T18:09:35;0.00;;;0.00;;
16296;SDS011;8256;56.144;13.394;2023-04-01T18:20:59;0.35;;;0.10;;
16296;SDS011;8256;56.144;13.394;2023-04-01T18:23:56;0.00;;;0.00;;
16296;SDS011;8256;56.144;13.394;2023-04-01T18:26:43;0.10;;;0.00;;
16296;SDS011;8256;56.144;13.394;2023-04-01T18:29:37;0.10;;;0.00;;
16296;SDS011;8256;56.144;13.394;2023-04-01T18:32:27;0.00;;;0.00;;
16296;SDS011;8256;56.144;13.394;2023-04-01T18:38:20;0.10;;;0.00;;
16296;SDS011;8256;56.144;13.394;2023-04-01T18:41:12;0.17;;;0.00;;
16296;SDS011;8256;56.144;13.394;2023-04-01T18:46:55;0.05;;;0.00;;
16296;SDS011;8256;56.144;13.394;2023-04-01T18:53:38;0.00;;;0.00;;
16296;SDS011;8256;56.144;13.394;2023-04-01T18:55:57;0.10;;;0.00;;
16296;SDS011;8256;56.144;13.394;2023-04-01T19:01:51;0.00;;;0.00;;
16296;SDS011;8256;56.144;13.394;2023-04-01T19:10:35;0.20;;;0.00;;
16296;SDS011;8256;56.144;13.394;2023-04-01T19:13:31;0.00;;;0.00;;
16296;SDS011;8256;56.144;13.394;2023-04-01T19:37:02;0.00;;;0.00;;
16296;SDS011;8256;56.144;13.394;2023-04-01T19:40:00;0.10;;;0.00;;
16296;SDS011;8256;56.144;13.394;2023-04-01T19:45:46;0.00;;;0.00;;
16296;SDS011;8256;56.144;13.394;2023-04-01T19:48:51;0.00;;;0.00;;
16296;SDS011;8256;56.144;13.394;2023-04-01T19:51:49;0.00;;;0.00;;
16296;SDS011;8256;56.144;13.394;2023-04-01T20:00:34;0.00;;;0.00;;
16296;SDS011;8256;56.144;13.394;2023-04-01T20:06:16;0.00;;;0.00;;
16296;SDS011;8256;56.144;13.394;2023-04-01T20:09:29;0.00;;;0.00;;
16296;SDS011;8256;56.144;13.394;2023-04-01T20:12:24;0.00;;;0.00;;
16296;SDS011;8256;56.144;13.394;2023-04-01T20:15:33;0.00;;;0.00;;
16296;SDS011;8256;56.144;13.394;2023-04-01T20:18:19;0.00;;;0.00;;
16296;SDS011;8256;56.144;13.394;2023-04-01T20:24:04;0.00;;;0.00;;
16296;SDS011;8256;56.144;13.394;2023-04-01T20:27:09;0.00;;;0.00;;
16296;SDS011;8256;56.144;13.394;2023-04-01T20:39:10;0.10;;;0.00;;
16296;SDS011;8256;56.144;13.394;2023-04-01T20:45:14;0.00;;;0.00;;
16296;SDS011;8256;56.144;13.394;2023-04-01T20:50:51;0.03;;;0.00;;
16296;SDS011;8256;56.144;13.394;2023-04-01T21:08:35;0.00;;;0.00;;
16296;SDS011;8256;56.144;13.394;2023-04-01T21:11:28;0.00;;;0.00;;
16296;SDS011;8256;56.144;13.394;2023-04-01T21:20:19;0.00;;;0.00;;
16296;SDS011;8256;56.144;13.394;2023-04-01T21:23:27;0.03;;;0.00;;
16296;SDS011;8256;56.144;13.394;2023-04-01T21:26:19;0.00;;;0.00;;
16296;SDS011;8256;56.144;13.394;2023-04-01T21:29:14;0.00;;;0.00;;
16296;SDS011;8256;56.144;13.394;2023-04-01T21:34:55;0.00;;;0.00;;
16296;SDS011;8256;56.144;13.394;2023-04-01T21:43:51;0.00;;;0.00;;
16296;SDS011;8256;56.144;13.394;2023-04-01T22:04:50;0.00;;;0.00;;
16296;SDS011;8256;56.144;13.394;2023-04-01T22:07:44;0.00;;;0.00;;
16296;SDS011;8256;56.144;13.394;2023-04-01T22:10:41;0.00;;;0.00;;
16296;SDS011;8256;56.144;13.394;2023-04-01T22:13:48;0.35;;;0.10;;
16296;SDS011;8256;56.144;13.394;2023-04-01T22:19:37;0.00;;;0.00;;
16296;SDS011;8256;56.144;13.394;2023-04-01T22:28:00;0.00;;;0.00;;
16296;SDS011;8256;56.144;13.394;2023-04-01T22:31:05;0.00;;;0.00;;
16296;SDS011;8256;56.144;13.394;2023-04-01T22:42:42;0.00;;;0.00;;
16296;SDS011;8256;56.144;13.394;2023-04-01T22:45:33;0.00;;;0.00;;
16296;SDS011;8256;56.144;13.394;2023-04-01T22:48:43;0.00;;;0.00;;
16296;SDS011;8256;56.144;13.394;2023-04-01T22:54:59;0.00;;;0.00;;
16296;SDS011;8256;56.144;13.394;2023-04-01T22:57:52;0.00;;;0.00;;
16296;SDS011;8256;56.144;13.394;2023-04-01T23:00:39;0.00;;;0.00;;
16296;SDS011;8256;56.144;13.394;2023-04-01T23:03:31;0.00;;;0.00;;
16296;SDS011;8256;56.144;13.394;2023-04-01T23:06:19;0.13;;;0.00;;
16296;SDS011;8256;56.144;13.394;2023-04-01T23:09:07;0.00;;;0.00;;
16296;SDS011;8256;56.144;13.394;2023-04-01T23:14:46;0.00;;;0.00;;
16296;SDS011;8256;56.144;13.394;2023-04-01T23:17:35;0.00;;;0.00;;
16296;SDS011;8256;56.144;13.394;2023-04-01T23:26:04;0.00;;;0.00;;
16296;SDS011;8256;56.144;13.394;2023-04-01T23:28:52;0.00;;;0.00;;
16296;SDS011;8256;56.144;13.394;2023-04-01T23:31:39;0.00;;;0.00;;
16296;SDS011;8256;56.144;13.394;2023-04-01T23:34:27;0.00;;;0.00;;
16296;SDS011;8256;56.144;13.394;2023-04-01T23:37:13;0.00;;;0.00;;
16296;SDS011;8256;56.144;13.394;2023-04-01T23:40:02;0.00;;;0.00;;
16296;SDS011;8256;56.144;13.394;2023-04-01T23:42:50;0.00;;;0.00;;
16296;SDS011;8256;56.144;13.394;2023-04-01T23:45:35;0.00;;;0.00;;
16296;SDS011;8256;56.144;13.394;2023-04-01T23:48:24;0.00;;;0.00;;
16296;SDS011;8256;56.144;13.394;2023-04-01T23:51:13;0.00;;;0.00;;
16296;SDS011;8256;56.144;13.394;2023-04-01T23:54:03;0.00;;;0.00;;
16296;SDS011;8256;56.144;13.394;2023-04-01T23:56:51;0.00;;;0.00;;
16296;SDS011;8256;56.144;13.394;2023-04-01T23:59:37;0.00;;;0.00;;
